Time;durP1;ratioP1;P1;durP2;ratioP2;P2;SDS_P1;SDS_P2;PMS_P1;PMS_P2;Temp;Humidity;BMP_temperature;BMP_pressure;BME280_temperature;BME280_humidity;BME280_pressure;Samples;Min_cycle;Max_cycle;Signal;HPM_P1;HPM_P2
2023/01/10 00:01:47;;;;;;;23.45;14.02;;;;;;;;;;6220608;23;20000;-93
2023/01/10 00:04:14;;;;;;;20.63;13.52;;;;;;;;;;6220684;23;20024;-92
2023/01/10 00:06:40;;;;;;;24.02;14.60;;;;;;;;;;6220624;23;20384;-92
2023/01/10 00:09:21;;;;;;;22.23;14.95;;;;;;;;;;6221015;23;20011;-91
2023/01/10 00:14:33;;;;;;;24.20;15.05;;;;;;;;;;6220925;23;20055;-92
2023/01/10 00:17:00;;;;;;;24.23;15.18;;;;;;;;;;6195120;23;20009;-92
2023/01/10 00:19:26;;;;;;;26.33;15.75;;;;;;;;;;6194687;23;20046;-92
2023/01/10 00:22:27;;;;;;;28.80;16.10;;;;;;;;;;6220381;23;20005;-91
2023/01/10 00:24:53;;;;;;;24.92;15.35;;;;;;;;;;6196004;23;20083;-92
2023/01/10 00:27:21;;;;;;;24.77;14.65;;;;;;;;;;6223017;23;20000;-93
2023/01/10 00:29:48;;;;;;;26.33;16.38;;;;;;;;;;6196481;23;20005;-93
2023/01/10 00:32:14;;;;;;;26.95;14.75;;;;;;;;;;6196724;23;20011;-91
2023/01/10 00:34:40;;;;;;;25.70;15.00;;;;;;;;;;6222612;23;20004;-91
2023/01/10 00:45:58;;;;;;;29.70;17.10;;;;;;;;;;6222725;23;20031;-93
2023/01/10 00:48:24;;;;;;;26.10;16.42;;;;;;;;;;6222412;23;20476;-92
2023/01/10 00:50:50;;;;;;;28.33;16.38;;;;;;;;;;6222719;23;20008;-92
2023/01/10 00:56:20;;;;;;;33.83;18.58;;;;;;;;;;6222540;23;20303;-93
2023/01/10 00:58:46;;;;;;;26.92;16.48;;;;;;;;;;6195972;23;20036;-92
2023/01/10 01:01:12;;;;;;;29.25;17.20;;;;;;;;;;6196000;23;20008;-91
2023/01/10 01:03:38;;;;;;;25.73;16.23;;;;;;;;;;6222629;23;20023;-93
2023/01/10 01:06:05;;;;;;;30.83;18.05;;;;;;;;;;6222635;23;20078;-93
2023/01/10 01:08:31;;;;;;;28.85;17.02;;;;;;;;;;6195768;23;20091;-92
2023/01/10 01:10:57;;;;;;;28.10;16.98;;;;;;;;;;6222803;23;20012;-91
2023/01/10 01:13:24;;;;;;;25.48;15.80;;;;;;;;;;6196018;23;20007;-92
2023/01/10 01:15:50;;;;;;;25.65;15.68;;;;;;;;;;6196205;23;20302;-91
2023/01/10 01:18:17;;;;;;;30.50;17.55;;;;;;;;;;6195982;23;20364;-93
2023/01/10 01:20:46;;;;;;;24.17;15.32;;;;;;;;;;6222174;23;20004;-92
2023/01/10 01:23:13;;;;;;;23.85;14.57;;;;;;;;;;6222291;23;20007;-93
2023/01/10 01:25:40;;;;;;;23.77;15.48;;;;;;;;;;6221934;23;20043;-93
2023/01/10 01:28:06;;;;;;;26.33;16.08;;;;;;;;;;6222180;23;20419;-92
2023/01/10 01:30:33;;;;;;;28.23;15.80;;;;;;;;;;6196168;23;20008;-92
2023/01/10 01:32:59;;;;;;;22.77;14.52;;;;;;;;;;6222544;23;20291;-92
2023/01/10 01:35:25;;;;;;;23.52;14.63;;;;;;;;;;6195661;23;20008;-91
2023/01/10 01:38:42;;;;;;;23.52;14.48;;;;;;;;;;6195966;23;20095;-91
2023/01/10 01:41:55;;;;;;;23.02;14.38;;;;;;;;;;6195697;23;20368;-90
2023/01/10 01:44:00;;;;;;;24.60;14.63;;;;;;;;;;6222036;23;20020;-91
2023/01/10 01:46:26;;;;;;;25.08;14.52;;;;;;;;;;6222416;23;19996;-93
2023/01/10 01:48:53;;;;;;;25.08;15.32;;;;;;;;;;6221895;23;20008;-92
2023/01/10 01:51:21;;;;;;;24.25;14.90;;;;;;;;;;6222420;23;20260;-92
2023/01/10 01:59:55;;;;;;;24.50;13.65;;;;;;;;;;6221735;23;20080;-92
2023/01/10 02:02:26;;;;;;;21.10;13.02;;;;;;;;;;6222074;23;20009;-91
2023/01/10 02:05:02;;;;;;;24.13;14.03;;;;;;;;;;6221552;23;20369;-93
2023/01/10 02:07:56;;;;;;;22.95;14.65;;;;;;;;;;6220792;23;20007;-92
2023/01/10 02:10:31;;;;;;;26.63;14.68;;;;;;;;;;6221751;23;20008;-93
2023/01/10 02:13:01;;;;;;;22.33;14.00;;;;;;;;;;6220343;23;20009;-92
2023/01/10 02:15:27;;;;;;;23.45;14.55;;;;;;;;;;6222031;23;20026;-93
2023/01/10 02:17:53;;;;;;;24.98;14.73;;;;;;;;;;6220662;23;20268;-91
2023/01/10 02:20:21;;;;;;;22.20;14.35;;;;;;;;;;6220335;23;20040;-92
2023/01/10 02:29:13;;;;;;;21.40;13.57;;;;;;;;;;6221802;23;20008;-90
2023/01/10 02:31:58;;;;;;;22.02;13.75;;;;;;;;;;6220361;23;20020;-91
2023/01/10 02:34:24;;;;;;;20.33;13.27;;;;;;;;;;6220526;23;20355;-94
2023/01/10 02:37:02;;;;;;;25.17;14.18;;;;;;;;;;6221349;23;20001;-92
2023/01/10 02:39:56;;;;;;;26.25;15.88;;;;;;;;;;6221444;23;20009;-91
2023/01/10 02:42:51;;;;;;;23.00;15.50;;;;;;;;;;6221168;22;20015;-92
2023/01/10 02:45:29;;;;;;;23.02;14.90;;;;;;;;;;6100669;23;20030;-92
2023/01/10 02:47:55;;;;;;;23.90;14.85;;;;;;;;;;6100725;23;20006;-93
2023/01/10 02:50:25;;;;;;;21.67;14.27;;;;;;;;;;6100263;23;20010;-91
2023/01/10 02:52:52;;;;;;;22.17;14.48;;;;;;;;;;6100912;23;20323;-91
2023/01/10 02:55:20;;;;;;;22.90;14.52;;;;;;;;;;6100659;23;20041;-92
2023/01/10 02:58:10;;;;;;;23.90;15.05;;;;;;;;;;6100895;23;20022;-91
2023/01/10 03:00:45;;;;;;;22.30;14.40;;;;;;;;;;6100547;23;20006;-92
2023/01/10 03:03:14;;;;;;;24.13;15.45;;;;;;;;;;6100842;23;20030;-93
2023/01/10 03:05:59;;;;;;;25.58;15.95;;;;;;;;;;6100459;23;20034;-91
2023/01/10 03:08:46;;;;;;;26.35;16.60;;;;;;;;;;6100671;23;20049;-92
2023/01/10 03:11:13;;;;;;;28.35;17.45;;;;;;;;;;6100375;23;20259;-91
2023/01/10 03:13:57;;;;;;;33.63;20.17;;;;;;;;;;6100467;23;20002;-92
2023/01/10 03:16:26;;;;;;;37.95;21.60;;;;;;;;;;6100447;23;20017;-92
2023/01/10 03:19:00;;;;;;;37.50;21.58;;;;;;;;;;6100598;23;20018;-90
2023/01/10 03:21:27;;;;;;;45.05;23.25;;;;;;;;;;6142258;23;20008;-92
2023/01/10 03:24:31;;;;;;;43.72;23.45;;;;;;;;;;6221457;23;20008;-91
2023/01/10 03:27:18;;;;;;;40.50;21.45;;;;;;;;;;6221792;23;20073;-92
2023/01/10 03:30:03;;;;;;;41.83;23.10;;;;;;;;;;6100432;23;20026;-92
2023/01/10 03:32:29;;;;;;;41.40;22.60;;;;;;;;;;6100658;23;20066;-91
2023/01/10 03:34:56;;;;;;;44.85;24.00;;;;;;;;;;6100609;23;20243;-91
2023/01/10 03:37:28;;;;;;;39.38;23.63;;;;;;;;;;6100552;23;20009;-91
2023/01/10 03:40:06;;;;;;;39.53;23.15;;;;;;;;;;6100365;23;20011;-91
2023/01/10 03:45:56;;;;;;;44.00;23.73;;;;;;;;;;6071988;23;20298;-91
2023/01/10 03:48:23;;;;;;;42.38;23.33;;;;;;;;;;6071824;23;20077;-92
2023/01/10 03:50:50;;;;;;;46.05;24.50;;;;;;;;;;6071712;23;20011;-90
2023/01/10 03:53:36;;;;;;;43.60;24.25;;;;;;;;;;6071407;23;20031;-92
2023/01/10 03:56:02;;;;;;;39.17;22.77;;;;;;;;;;6071259;23;20015;-90
2023/01/10 03:58:29;;;;;;;35.33;21.10;;;;;;;;;;6071839;23;20043;-90
2023/01/10 04:00:55;;;;;;;32.97;20.33;;;;;;;;;;6073288;23;20034;-92
2023/01/10 04:03:21;;;;;;;28.60;19.02;;;;;;;;;;6073630;23;20073;-90
2023/01/10 04:05:47;;;;;;;26.30;16.33;;;;;;;;;;6080866;23;20009;-92
2023/01/10 04:08:13;;;;;;;26.13;15.57;;;;;;;;;;6161121;23;20041;-91
2023/01/10 04:10:39;;;;;;;30.98;15.77;;;;;;;;;;6160884;23;20285;-90
2023/01/10 04:13:05;;;;;;;20.55;11.60;;;;;;;;;;6136431;23;20037;-91
2023/01/10 04:15:31;;;;;;;13.93;9.85;;;;;;;;;;6136149;23;20018;-91
2023/01/10 04:17:58;;;;;;;8.25;6.30;;;;;;;;;;6161004;23;20473;-90
2023/01/10 04:20:27;;;;;;;9.57;6.18;;;;;;;;;;6161156;23;20005;-90
2023/01/10 04:22:53;;;;;;;9.57;6.47;;;;;;;;;;6196266;23;20031;-91
2023/01/10 04:28:37;;;;;;;5.75;4.72;;;;;;;;;;6222541;23;20060;-90
2023/01/10 04:31:03;;;;;;;6.55;4.95;;;;;;;;;;6223102;23;20019;-92
2023/01/10 04:33:29;;;;;;;5.47;4.68;;;;;;;;;;6222633;23;20036;-86
2023/01/10 04:35:55;;;;;;;5.05;4.13;;;;;;;;;;6221581;23;20015;-86
2023/01/10 04:38:21;;;;;;;4.63;4.20;;;;;;;;;;6222457;23;20091;-85
2023/01/10 04:40:55;;;;;;;4.85;3.95;;;;;;;;;;6221255;23;20016;-85
2023/01/10 04:43:21;;;;;;;4.95;4.20;;;;;;;;;;6222506;22;20059;-85
2023/01/10 04:45:47;;;;;;;3.83;2.97;;;;;;;;;;6222880;23;20020;-85
2023/01/10 04:48:13;;;;;;;6.03;3.10;;;;;;;;;;6196336;23;20007;-85
2023/01/10 04:50:40;;;;;;;3.72;3.13;;;;;;;;;;6222844;23;20008;-85
2023/01/10 04:53:06;;;;;;;3.30;2.60;;;;;;;;;;6222849;23;20001;-86
2023/01/10 04:58:37;;;;;;;3.13;2.35;;;;;;;;;;6222314;23;20102;-86
2023/01/10 05:01:17;;;;;;;2.58;2.25;;;;;;;;;;6222719;23;20009;-85
2023/01/10 05:03:43;;;;;;;3.75;2.55;;;;;;;;;;6222358;23;20379;-85
2023/01/10 05:06:09;;;;;;;4.15;2.50;;;;;;;;;;6222562;23;20007;-86
2023/01/10 05:11:38;;;;;;;3.22;2.10;;;;;;;;;;6222177;23;20019;-86
2023/01/10 05:14:04;;;;;;;2.85;2.10;;;;;;;;;;6222736;23;20020;-85
2023/01/10 05:16:31;;;;;;;3.03;2.05;;;;;;;;;;6222562;23;20012;-85
2023/01/10 05:18:57;;;;;;;4.97;2.50;;;;;;;;;;6222617;23;20008;-86
2023/01/10 05:21:23;;;;;;;3.40;2.35;;;;;;;;;;6196093;23;20362;-86
2023/01/10 05:23:49;;;;;;;3.30;2.38;;;;;;;;;;6221784;23;20011;-86
2023/01/10 05:26:16;;;;;;;5.32;2.97;;;;;;;;;;6195937;23;20007;-86
2023/01/10 05:28:42;;;;;;;6.38;3.72;;;;;;;;;;6195862;23;20001;-86
2023/01/10 05:31:10;;;;;;;10.02;5.07;;;;;;;;;;6195808;23;20294;-85
2023/01/10 05:33:37;;;;;;;10.70;5.05;;;;;;;;;;6221811;23;20088;-85
2023/01/10 05:36:04;;;;;;;5.57;3.80;;;;;;;;;;6222445;23;20005;-86
2023/01/10 05:38:30;;;;;;;5.35;2.75;;;;;;;;;;6195664;23;20004;-86
2023/01/10 05:40:57;;;;;;;4.10;1.92;;;;;;;;;;6222320;23;20005;-86
2023/01/10 05:43:23;;;;;;;3.05;2.40;;;;;;;;;;6222016;23;20080;-85
2023/01/10 05:45:49;;;;;;;4.35;2.70;;;;;;;;;;6222567;23;20356;-86
2023/01/10 05:48:15;;;;;;;4.38;2.53;;;;;;;;;;6222293;23;20374;-85
2023/01/10 05:50:41;;;;;;;3.83;2.45;;;;;;;;;;6195753;23;20559;-85
2023/01/10 05:53:07;;;;;;;5.68;3.10;;;;;;;;;;6221869;23;20368;-86
2023/01/10 05:55:33;;;;;;;16.48;7.55;;;;;;;;;;6195731;23;20087;-85
2023/01/10 05:57:59;;;;;;;17.98;8.80;;;;;;;;;;6195795;23;20058;-87
2023/01/10 06:00:26;;;;;;;12.88;5.88;;;;;;;;;;6221970;23;20004;-86
2023/01/10 06:02:56;;;;;;;13.05;6.20;;;;;;;;;;6195967;23;20009;-86
2023/01/10 06:05:22;;;;;;;11.07;4.13;;;;;;;;;;6195638;23;20055;-87
2023/01/10 06:07:48;;;;;;;6.28;3.58;;;;;;;;;;6221900;23;20005;-86
2023/01/10 06:10:15;;;;;;;4.50;2.63;;;;;;;;;;6221646;23;20084;-85
2023/01/10 06:12:41;;;;;;;5.82;2.40;;;;;;;;;;6195606;23;20009;-85
2023/01/10 06:15:08;;;;;;;7.40;3.30;;;;;;;;;;6222009;23;20008;-86
2023/01/10 06:17:34;;;;;;;6.55;3.25;;;;;;;;;;6221620;23;20067;-86
2023/01/10 06:20:00;;;;;;;4.00;2.40;;;;;;;;;;6195573;23;20000;-85
2023/01/10 06:22:26;;;;;;;6.63;3.72;;;;;;;;;;6221433;23;20009;-86
2023/01/10 06:24:53;;;;;;;4.72;3.05;;;;;;;;;;6222014;23;20024;-85
2023/01/10 06:27:20;;;;;;;4.07;2.28;;;;;;;;;;6220280;23;20055;-86
2023/01/10 06:29:46;;;;;;;4.90;2.70;;;;;;;;;;6221856;23;20013;-85
2023/01/10 06:32:12;;;;;;;10.02;5.20;;;;;;;;;;6221493;23;20009;-86
2023/01/10 06:34:38;;;;;;;14.73;7.40;;;;;;;;;;6221898;23;20084;-85
2023/01/10 06:37:04;;;;;;;9.95;6.55;;;;;;;;;;6195386;23;20098;-85
2023/01/10 06:39:30;;;;;;;10.70;6.63;;;;;;;;;;6221486;23;20008;-86
2023/01/10 06:41:56;;;;;;;9.85;5.47;;;;;;;;;;6221505;22;20076;-85
2023/01/10 06:44:22;;;;;;;9.77;5.75;;;;;;;;;;6221844;23;20000;-86
2023/01/10 06:46:48;;;;;;;7.75;3.83;;;;;;;;;;6221480;23;20001;-86
2023/01/10 06:49:14;;;;;;;11.13;5.63;;;;;;;;;;6195368;23;20285;-85
2023/01/10 06:51:40;;;;;;;8.88;4.68;;;;;;;;;;6195014;23;20004;-85
2023/01/10 06:54:06;;;;;;;8.68;4.35;;;;;;;;;;6195080;23;20096;-86
2023/01/10 06:56:32;;;;;;;9.63;4.72;;;;;;;;;;6221436;23;20378;-85
2023/01/10 06:58:58;;;;;;;5.88;3.80;;;;;;;;;;6221429;23;20091;-85
2023/01/10 07:01:24;;;;;;;12.18;6.97;;;;;;;;;;6221654;23;20295;-86
2023/01/10 07:03:50;;;;;;;19.70;9.95;;;;;;;;;;6195089;23;20332;-85
2023/01/10 07:06:16;;;;;;;15.02;8.90;;;;;;;;;;6221370;23;20371;-86
2023/01/10 07:09:08;;;;;;;15.10;8.98;;;;;;;;;;6220955;23;20008;-85
2023/01/10 07:11:34;;;;;;;14.90;9.27;;;;;;;;;;6221061;23;20084;-85
2023/01/10 07:14:01;;;;;;;15.98;9.93;;;;;;;;;;6221593;23;20004;-85
2023/01/10 07:16:27;;;;;;;17.75;8.40;;;;;;;;;;6194952;23;20367;-85
2023/01/10 07:18:53;;;;;;;12.35;7.75;;;;;;;;;;6221034;23;20368;-86
2023/01/10 07:21:19;;;;;;;11.05;6.13;;;;;;;;;;6221401;23;20028;-86
2023/01/10 07:24:13;;;;;;;15.35;6.70;;;;;;;;;;6221377;23;20000;-86
2023/01/10 07:26:39;;;;;;;11.77;5.70;;;;;;;;;;6221040;23;20004;-86
2023/01/10 07:29:05;;;;;;;8.77;5.47;;;;;;;;;;6221102;23;20007;-85
2023/01/10 07:31:31;;;;;;;9.05;5.72;;;;;;;;;;6220911;23;20091;-85
2023/01/10 07:33:58;;;;;;;12.45;7.35;;;;;;;;;;6221398;23;20287;-86
2023/01/10 07:36:24;;;;;;;12.40;7.10;;;;;;;;;;6194812;23;20009;-86
2023/01/10 07:39:11;;;;;;;9.50;5.63;;;;;;;;;;6221205;23;20008;-86
2023/01/10 07:41:38;;;;;;;10.50;5.90;;;;;;;;;;6220633;22;20008;-85
2023/01/10 07:44:04;;;;;;;9.65;4.85;;;;;;;;;;6221441;23;20001;-85
2023/01/10 07:46:30;;;;;;;13.32;5.90;;;;;;;;;;6221040;23;20360;-85
2023/01/10 07:48:56;;;;;;;18.38;8.60;;;;;;;;;;6221573;23;20000;-86
2023/01/10 07:51:22;;;;;;;13.07;6.10;;;;;;;;;;6194793;23;20379;-86
2023/01/10 07:53:48;;;;;;;9.18;5.32;;;;;;;;;;6221394;23;20068;-86
2023/01/10 07:56:14;;;;;;;11.45;5.22;;;;;;;;;;6221207;23;20005;-86
2023/01/10 07:58:40;;;;;;;5.25;3.67;;;;;;;;;;6221460;23;20071;-86
2023/01/10 08:01:06;;;;;;;9.35;6.22;;;;;;;;;;6194479;23;20050;-86
2023/01/10 08:03:33;;;;;;;11.25;7.30;;;;;;;;;;6194812;23;20079;-86
2023/01/10 08:06:03;;;;;;;12.20;8.52;;;;;;;;;;6221280;23;20024;-85
2023/01/10 08:08:30;;;;;;;14.88;8.32;;;;;;;;;;6194591;23;20005;-85
2023/01/10 08:13:59;;;;;;;10.90;6.13;;;;;;;;;;6220836;23;20016;-86
2023/01/10 08:16:25;;;;;;;21.15;9.70;;;;;;;;;;6221158;23;20076;-86
2023/01/10 08:18:51;;;;;;;20.00;11.48;;;;;;;;;;6220823;23;20372;-86
2023/01/10 08:21:17;;;;;;;15.85;7.78;;;;;;;;;;6220666;23;20000;-87
2023/01/10 08:26:28;;;;;;;18.27;10.32;;;;;;;;;;6220969;23;20043;-86
2023/01/10 08:28:54;;;;;;;10.95;7.20;;;;;;;;;;6220882;23;19997;-87
2023/01/10 08:31:21;;;;;;;15.48;8.82;;;;;;;;;;6194817;23;20013;-86
2023/01/10 08:33:47;;;;;;;18.42;10.88;;;;;;;;;;6194565;23;20376;-85
2023/01/10 08:36:21;;;;;;;23.95;12.73;;;;;;;;;;6220839;23;20332;-86
2023/01/10 08:38:49;;;;;;;15.95;8.85;;;;;;;;;;6194444;23;20013;-85
2023/01/10 08:41:15;;;;;;;14.65;8.40;;;;;;;;;;6220934;23;20063;-86
2023/01/10 08:43:41;;;;;;;27.42;12.02;;;;;;;;;;6217932;23;20092;-86
2023/01/10 08:46:07;;;;;;;31.10;11.45;;;;;;;;;;6222289;23;20009;-86
2023/01/10 08:48:33;;;;;;;18.92;9.50;;;;;;;;;;6223114;23;19996;-86
2023/01/10 08:51:04;;;;;;;12.07;6.80;;;;;;;;;;6221277;23;20004;-90
2023/01/10 08:53:30;;;;;;;9.07;4.93;;;;;;;;;;6222493;23;20012;-86
2023/01/10 08:55:56;;;;;;;11.90;6.65;;;;;;;;;;6221401;23;20371;-86
2023/01/10 08:58:22;;;;;;;12.00;6.30;;;;;;;;;;6222547;23;20005;-86
2023/01/10 09:00:50;;;;;;;18.60;9.05;;;;;;;;;;6221075;23;20011;-90
2023/01/10 09:03:16;;;;;;;13.82;6.50;;;;;;;;;;6222864;23;20058;-86
2023/01/10 09:05:42;;;;;;;40.40;15.82;;;;;;;;;;6222649;23;20008;-87
2023/01/10 09:08:09;;;;;;;42.83;18.50;;;;;;;;;;6222918;23;20297;-86
2023/01/10 09:10:35;;;;;;;12.80;5.78;;;;;;;;;;6222377;23;20012;-87
2023/01/10 09:13:03;;;;;;;14.75;7.10;;;;;;;;;;6221240;23;20520;-86
2023/01/10 09:15:30;;;;;;;8.05;4.03;;;;;;;;;;6221317;23;20005;-86
2023/01/10 09:18:00;;;;;;;13.07;6.80;;;;;;;;;;6222717;23;20027;-86
2023/01/10 09:20:27;;;;;;;13.05;6.38;;;;;;;;;;6222123;23;20012;-86
2023/01/10 09:22:54;;;;;;;19.00;9.55;;;;;;;;;;6222173;23;20072;-86
2023/01/10 09:25:20;;;;;;;16.30;8.43;;;;;;;;;;6222424;23;20008;-86
2023/01/10 09:27:46;;;;;;;20.15;10.35;;;;;;;;;;6222240;23;20370;-86
2023/01/10 09:30:12;;;;;;;19.23;8.75;;;;;;;;;;6222649;23;19996;-86
2023/01/10 09:32:39;;;;;;;21.40;9.73;;;;;;;;;;6220898;23;20016;-86
2023/01/10 09:35:05;;;;;;;17.48;7.78;;;;;;;;;;6221849;23;20024;-86
2023/01/10 09:37:32;;;;;;;17.05;8.35;;;;;;;;;;6221755;23;20027;-87
2023/01/10 09:43:10;;;;;;;18.17;9.38;;;;;;;;;;6222070;22;20032;-86
2023/01/10 09:45:59;;;;;;;28.45;12.10;;;;;;;;;;6195872;23;20004;-86
2023/01/10 09:48:48;;;;;;;29.23;13.55;;;;;;;;;;6222406;23;20004;-86
2023/01/10 09:51:27;;;;;;;26.35;11.45;;;;;;;;;;6221989;23;19993;-87
2023/01/10 09:53:55;;;;;;;55.20;26.58;;;;;;;;;;6195767;23;20000;-85
2023/01/10 09:56:21;;;;;;;68.55;33.28;;;;;;;;;;6221730;23;20308;-86
2023/01/10 09:58:48;;;;;;;38.80;19.00;;;;;;;;;;6222297;23;20009;-85
2023/01/10 10:01:20;;;;;;;42.28;22.02;;;;;;;;;;6222275;23;20295;-85
2023/01/10 10:04:01;;;;;;;38.30;19.90;;;;;;;;;;6222389;23;20156;-86
2023/01/10 10:06:27;;;;;;;39.70;22.05;;;;;;;;;;6222361;23;20067;-85
2023/01/10 10:08:54;;;;;;;43.45;21.40;;;;;;;;;;6195660;23;20009;-85
2023/01/10 10:11:26;;;;;;;50.83;24.15;;;;;;;;;;6222101;23;20079;-86
2023/01/10 10:14:11;;;;;;;41.90;17.95;;;;;;;;;;6195594;23;20009;-85
2023/01/10 10:16:37;;;;;;;26.88;13.38;;;;;;;;;;6195490;23;20004;-85
2023/01/10 10:19:16;;;;;;;36.92;16.98;;;;;;;;;;6221628;23;20028;-85
2023/01/10 10:21:44;;;;;;;41.60;17.88;;;;;;;;;;6221235;23;20267;-85
2023/01/10 10:27:35;;;;;;;16.75;7.55;;;;;;;;;;6221658;23;20084;-86
2023/01/10 10:30:19;;;;;;;22.27;10.15;;;;;;;;;;6221948;23;20080;-85
2023/01/10 10:32:56;;;;;;;13.82;7.78;;;;;;;;;;6195340;23;19997;-85
2023/01/10 10:35:29;;;;;;;20.25;10.07;;;;;;;;;;6221566;23;20012;-85
2023/01/10 10:37:58;;;;;;;23.48;12.20;;;;;;;;;;6195350;23;20009;-86
2023/01/10 10:43:38;;;;;;;22.45;8.57;;;;;;;;;;6221229;22;20048;-85
2023/01/10 10:46:09;;;;;;;20.75;10.30;;;;;;;;;;6195169;23;20007;-86
2023/01/10 10:48:53;;;;;;;20.55;9.43;;;;;;;;;;6195027;23;20005;-85
2023/01/10 10:51:24;;;;;;;11.75;6.53;;;;;;;;;;6221391;23;20034;-85
2023/01/10 10:53:50;;;;;;;17.02;10.50;;;;;;;;;;6221347;23;20050;-86
2023/01/10 10:56:54;;;;;;;18.45;10.02;;;;;;;;;;6195091;23;20005;-85
2023/01/10 10:59:21;;;;;;;11.82;7.93;;;;;;;;;;6194991;23;20004;-85
2023/01/10 11:01:49;;;;;;;14.95;7.97;;;;;;;;;;6221282;23;20005;-85
2023/01/10 11:04:18;;;;;;;17.10;7.32;;;;;;;;;;6221196;23;20359;-85
2023/01/10 11:06:48;;;;;;;13.45;8.02;;;;;;;;;;6195063;23;20088;-85
2023/01/10 11:11:58;;;;;;;11.75;6.63;;;;;;;;;;6231588;23;20363;-85
2023/01/10 11:14:44;;;;;;;16.77;8.93;;;;;;;;;;6221509;23;20028;-86
2023/01/10 11:17:17;;;;;;;28.00;14.93;;;;;;;;;;6221221;23;20382;-86
2023/01/10 11:19:54;;;;;;;41.50;22.35;;;;;;;;;;6195118;23;20009;-85
2023/01/10 11:22:20;;;;;;;35.28;19.25;;;;;;;;;;6194763;23;20000;-85
2023/01/10 11:28:12;;;;;;;66.07;39.13;;;;;;;;;;6221145;23;20039;-85
2023/01/10 11:30:38;;;;;;;39.13;23.10;;;;;;;;;;6221090;23;20012;-86
2023/01/10 11:33:06;;;;;;;49.40;19.95;;;;;;;;;;6221616;23;20005;-85
2023/01/10 11:35:35;;;;;;;44.20;20.63;;;;;;;;;;6194805;23;20008;-85
2023/01/10 11:38:02;;;;;;;22.33;12.00;;;;;;;;;;6220924;23;20394;-86
2023/01/10 11:41:03;;;;;;;15.93;10.13;;;;;;;;;;6221561;23;20071;-85
2023/01/10 11:43:29;;;;;;;13.38;8.30;;;;;;;;;;6125378;23;20014;-85
2023/01/10 11:45:57;;;;;;;14.90;8.55;;;;;;;;;;6129752;23;19998;-85
2023/01/10 11:48:26;;;;;;;12.63;9.40;;;;;;;;;;6129458;23;20002;-85
2023/01/10 11:50:54;;;;;;;14.43;9.00;;;;;;;;;;6105256;23;20010;-85
2023/01/10 11:53:29;;;;;;;15.73;9.23;;;;;;;;;;6129866;23;20026;-85
2023/01/10 11:55:55;;;;;;;16.17;10.05;;;;;;;;;;6129656;23;20013;-84
2023/01/10 11:58:21;;;;;;;18.13;10.63;;;;;;;;;;6129481;23;20059;-85
2023/01/10 12:00:49;;;;;;;17.95;11.13;;;;;;;;;;6104999;23;20041;-85
2023/01/10 12:03:16;;;;;;;26.42;12.98;;;;;;;;;;6129633;23;20002;-83
2023/01/10 12:05:49;;;;;;;42.28;16.13;;;;;;;;;;6104893;23;20250;-86
2023/01/10 12:08:44;;;;;;;28.27;14.57;;;;;;;;;;6129702;23;20392;-85
2023/01/10 12:11:13;;;;;;;16.33;10.85;;;;;;;;;;6071395;23;20053;-85
2023/01/10 12:13:49;;;;;;;12.68;8.90;;;;;;;;;;6071469;23;20015;-85
2023/01/10 12:16:17;;;;;;;13.73;8.70;;;;;;;;;;6073444;23;20022;-85
2023/01/10 12:18:43;;;;;;;22.15;12.32;;;;;;;;;;6158970;23;20012;-84
2023/01/10 12:21:11;;;;;;;44.95;24.33;;;;;;;;;;6135656;23;20320;-85
2023/01/10 12:23:40;;;;;;;52.10;33.13;;;;;;;;;;6136205;23;20006;-86
2023/01/10 12:29:15;;;;;;;26.05;17.92;;;;;;;;;;6160819;23;20040;-84
2023/01/10 12:31:41;;;;;;;;;;;;;;;;;;6136703;23;20056;-85
2023/01/10 12:34:13;;;;;;;15.55;10.85;;;;;;;;;;6160728;23;19901;-85
2023/01/10 12:36:58;;;;;;;19.63;12.05;;;;;;;;;;6136046;23;20432;-84
2023/01/10 12:39:29;;;;;;;20.02;11.38;;;;;;;;;;6135970;23;20060;-83
2023/01/10 12:45:03;;;;;;;19.30;13.45;;;;;;;;;;6102274;23;20070;-85
2023/01/10 12:47:41;;;;;;;15.93;11.18;;;;;;;;;;6115705;23;20013;-84
2023/01/10 12:50:15;;;;;;;23.45;13.60;;;;;;;;;;6106636;23;20002;-85
2023/01/10 12:52:47;;;;;;;18.55;11.88;;;;;;;;;;6131247;23;20026;-86
2023/01/10 12:55:20;;;;;;;14.52;9.85;;;;;;;;;;6131035;23;20009;-85
2023/01/10 12:57:47;;;;;;;15.68;11.20;;;;;;;;;;6131060;23;20010;-85
2023/01/10 13:00:30;;;;;;;24.83;12.70;;;;;;;;;;6106932;23;20028;-85
2023/01/10 13:02:56;;;;;;;;;;;;;;;;;;6131816;23;20085;-85
2023/01/10 13:05:23;;;;;;;61.78;24.17;;;;;;;;;;6106453;23;19944;-85
2023/01/10 13:07:50;;;;;;;59.58;25.90;;;;;;;;;;6130783;23;20009;-87
2023/01/10 13:10:49;;;;;;;78.90;30.25;;;;;;;;;;6130801;23;20057;-84
2023/01/10 13:13:20;;;;;;;37.03;18.80;;;;;;;;;;6106347;23;20010;-84
2023/01/10 13:16:05;;;;;;;61.93;24.10;;;;;;;;;;6130876;23;20077;-84
2023/01/10 13:18:33;;;;;;;42.80;18.58;;;;;;;;;;6130734;23;20369;-85
2023/01/10 13:21:02;;;;;;;40.88;16.88;;;;;;;;;;6147307;23;20025;-84
2023/01/10 13:23:32;;;;;;;44.40;16.77;;;;;;;;;;6220688;23;20001;-84
2023/01/10 13:26:04;;;;;;;38.75;14.98;;;;;;;;;;6222147;23;20024;-85
2023/01/10 13:28:31;;;;;;;51.72;20.20;;;;;;;;;;6222241;23;20005;-83
2023/01/10 13:31:00;;;;;;;47.67;18.45;;;;;;;;;;6222185;23;20256;-85
2023/01/10 13:33:34;;;;;;;46.75;17.65;;;;;;;;;;6221660;23;20015;-84
2023/01/10 13:36:11;;;;;;;50.47;20.08;;;;;;;;;;6221954;23;20008;-84
2023/01/10 13:38:44;;;;;;;64.80;25.48;;;;;;;;;;6222109;23;20007;-84
2023/01/10 13:44:36;;;;;;;;;;;;;;;;;;6161178;23;20128;-94
2023/01/10 13:47:03;;;;;;;94.03;29.13;;;;;;;;;;6160820;23;19905;-87
2023/01/10 13:49:47;;;;;;;70.95;24.55;;;;;;;;;;6160029;23;20033;-87
2023/01/10 13:52:30;;;;;;;73.63;26.13;;;;;;;;;;6160370;23;20012;-87
2023/01/10 13:54:56;;;;;;;73.57;26.42;;;;;;;;;;6160191;23;20030;-88
2023/01/10 13:57:41;;;;;;;71.30;27.50;;;;;;;;;;6160365;23;20013;-87
2023/01/10 14:03:05;;;;;;;88.35;27.00;;;;;;;;;;6160250;23;20020;-88
2023/01/10 14:05:31;;;;;;;102.45;29.58;;;;;;;;;;6160256;23;20032;-87
2023/01/10 14:07:57;;;;;;;113.20;39.60;;;;;;;;;;6160051;22;20028;-88
2023/01/10 14:13:26;;;;;;;71.65;38.95;;;;;;;;;;6160118;23;20056;-87
2023/01/10 14:15:52;;;;;;;27.13;17.45;;;;;;;;;;6214021;23;20001;-87
2023/01/10 14:18:21;;;;;;;26.33;16.55;;;;;;;;;;6221316;23;20004;-88
2023/01/10 14:20:57;;;;;;;26.65;15.07;;;;;;;;;;6220444;23;20364;-87
2023/01/10 14:23:28;;;;;;;27.25;14.70;;;;;;;;;;6221944;23;20252;-87
2023/01/10 14:25:56;;;;;;;33.25;22.02;;;;;;;;;;6221937;23;19997;-88
2023/01/10 14:28:26;;;;;;;26.63;16.92;;;;;;;;;;6220871;23;20055;-87
2023/01/10 14:31:13;;;;;;;32.50;14.98;;;;;;;;;;6220582;23;20008;-91
2023/01/10 14:33:41;;;;;;;24.58;14.68;;;;;;;;;;6220478;23;20005;-86
2023/01/10 14:36:09;;;;;;;27.73;13.65;;;;;;;;;;6221613;23;20001;-87
2023/01/10 14:38:37;;;;;;;32.03;19.65;;;;;;;;;;6220348;23;20009;-86
2023/01/10 14:41:23;;;;;;;35.00;22.45;;;;;;;;;;6221935;23;20009;-87
2023/01/10 14:43:59;;;;;;;34.67;20.88;;;;;;;;;;6219797;23;20276;-86
2023/01/10 14:46:34;;;;;;;34.75;19.95;;;;;;;;;;6221906;23;19996;-86
2023/01/10 14:49:00;;;;;;;38.03;22.45;;;;;;;;;;6221448;23;20047;-86
2023/01/10 14:51:28;;;;;;;39.78;23.15;;;;;;;;;;6221722;23;20013;-86
2023/01/10 14:54:02;;;;;;;49.45;27.85;;;;;;;;;;6220381;23;20005;-86
2023/01/10 14:56:30;;;;;;;50.17;27.65;;;;;;;;;;6220248;23;20263;-86
2023/01/10 14:58:56;;;;;;;41.53;23.05;;;;;;;;;;6221382;23;20039;-86
2023/01/10 15:01:24;;;;;;;37.88;22.98;;;;;;;;;;6221429;23;20062;-87
2023/01/10 15:03:51;;;;;;;43.83;24.95;;;;;;;;;;6221752;23;20043;-87
2023/01/10 15:06:17;;;;;;;40.13;24.30;;;;;;;;;;6221600;23;20055;-90
2023/01/10 15:08:43;;;;;;;47.38;26.85;;;;;;;;;;6221296;23;20000;-90
2023/01/10 15:11:11;;;;;;;36.25;21.35;;;;;;;;;;6221350;23;20009;-89
2023/01/10 15:13:48;;;;;;;34.85;21.50;;;;;;;;;;6221320;23;20055;-90
2023/01/10 15:16:22;;;;;;;41.10;21.67;;;;;;;;;;6221524;23;20027;-88
2023/01/10 15:18:48;;;;;;;41.58;23.45;;;;;;;;;;6221551;23;20001;-89
2023/01/10 15:21:15;;;;;;;45.50;23.90;;;;;;;;;;6220038;23;20008;-91
2023/01/10 15:23:44;;;;;;;42.28;22.05;;;;;;;;;;6221481;23;20000;-89
2023/01/10 15:26:26;;;;;;;45.45;24.60;;;;;;;;;;6220117;23;20001;-90
2023/01/10 15:29:12;;;;;;;46.83;26.10;;;;;;;;;;6219703;23;20067;-90
2023/01/10 15:31:39;;;;;;;48.38;25.85;;;;;;;;;;6219791;23;20031;-88
2023/01/10 15:34:34;;;;;;;61.45;31.42;;;;;;;;;;6220008;23;20005;-90
2023/01/10 15:37:01;;;;;;;54.25;26.27;;;;;;;;;;6159218;23;20009;-89
2023/01/10 15:39:30;;;;;;;50.63;24.38;;;;;;;;;;6159182;23;20009;-89
2023/01/10 15:41:58;;;;;;;55.08;25.90;;;;;;;;;;6159144;23;20041;-89
2023/01/10 15:44:32;;;;;;;45.72;24.92;;;;;;;;;;6159192;23;20028;-89
2023/01/10 15:46:58;;;;;;;45.45;25.13;;;;;;;;;;6159119;23;20373;-89
2023/01/10 15:49:24;;;;;;;49.10;24.83;;;;;;;;;;6159157;23;20368;-90
2023/01/10 15:51:50;;;;;;;67.85;33.10;;;;;;;;;;6159156;23;20080;-90
2023/01/10 15:54:20;;;;;;;101.05;47.78;;;;;;;;;;6160898;23;20013;-89
2023/01/10 16:02:33;;;;;;;48.58;26.23;;;;;;;;;;6163157;23;19941;-91
2023/01/10 16:05:11;;;;;;;45.78;26.73;;;;;;;;;;6163155;23;20088;-88
2023/01/10 16:07:42;;;;;;;45.30;25.85;;;;;;;;;;6162259;23;20006;-88